createdAt,value
2018-03-26T00:00:02.668Z,5.8
2018-03-26T00:15:02.902Z,5.8
2018-03-26T00:30:02.339Z,5.8
2018-03-26T00:45:02.703Z,5.8
2018-03-26T01:00:02.941Z,5.8
2018-03-26T01:15:03.313Z,5.7
2018-03-26T01:30:02.789Z,5.7
2018-03-26T01:45:03.035Z,5.6
2018-03-26T02:00:02.642Z,5.6
2018-03-26T02:15:02.909Z,5.6
2018-03-26T02:30:02.371Z,5.6
2018-03-26T02:45:02.713Z,5.5
2018-03-26T03:00:02.960Z,5.5
2018-03-26T03:15:02.302Z,5.4
2018-03-26T03:30:02.732Z,5.4
2018-03-26T03:45:03.089Z,5.4
2018-03-26T04:00:02.559Z,5.4
2018-03-26T04:15:02.883Z,5.3
2018-03-26T04:30:02.363Z,5.3
2018-03-26T04:45:02.694Z,5.2
2018-03-26T05:00:03.038Z,5.2
2018-03-26T05:15:02.404Z,5.2
2018-03-26T05:30:02.734Z,5.2
2018-03-26T05:45:03.084Z,5.1
2018-03-26T06:00:02.598Z,5.1
2018-03-26T06:15:02.822Z,5.1
2018-03-26T06:30:02.300Z,5.1
2018-03-26T06:45:02.506Z,5.1
2018-03-26T07:00:02.852Z,5.1
2018-03-26T07:15:03.150Z,5.1
2018-03-26T07:30:02.488Z,5.1
2018-03-26T07:45:02.783Z,5.1
2018-03-26T08:00:03.018Z,5.1
2018-03-26T08:15:02.362Z,5.1
2018-03-26T08:30:02.663Z,5.2
2018-03-26T08:45:02.940Z,5.2
2018-03-26T09:00:02.367Z,5.2
2018-03-26T09:15:02.612Z,5.3
2018-03-26T09:30:02.938Z,5.3
2018-03-26T09:45:03.209Z,5.4
2018-03-26T10:00:02.336Z,5.4
2018-03-26T10:15:02.668Z,5.5
2018-03-26T10:30:02.999Z,5.6
2018-03-26T10:45:02.462Z,5.6
2018-03-26T11:00:02.702Z,5.6
2018-03-26T11:15:03.000Z,5.6
2018-03-26T11:30:02.324Z,5.7
2018-03-26T11:45:02.657Z,5.8
2018-03-26T12:00:02.906Z,5.8
2018-03-26T12:15:03.197Z,5.8
2018-03-26T12:30:02.633Z,5.8
2018-03-26T12:45:02.885Z,5.8
2018-03-26T13:00:03.204Z,5.8
2018-03-26T13:15:02.602Z,5.8
2018-03-26T13:30:03.085Z,5.8
2018-03-26T13:45:02.416Z,5.8
2018-03-26T14:00:02.789Z,5.8
2018-03-26T14:15:03.104Z,5.8
2018-03-26T14:30:02.497Z,5.8
2018-03-26T14:45:02.779Z,5.8
2018-03-26T15:00:03.013Z,5.9
2018-03-26T15:15:02.261Z,5.9
2018-03-26T15:30:02.617Z,5.9
2018-03-26T15:45:02.840Z,5.9
2018-03-26T16:00:03.110Z,5.9
2018-03-26T16:15:02.412Z,5.9
2018-03-26T16:30:02.710Z,5.9
2018-03-26T16:45:02.927Z,5.9
2018-03-26T17:00:03.185Z,5.9
2018-03-26T17:15:02.455Z,5.9
2018-03-26T17:30:02.850Z,5.9
2018-03-26T17:45:03.094Z,5.8
2018-03-26T18:00:02.419Z,5.9
2018-03-26T18:15:02.673Z,5.8
2018-03-26T18:30:02.996Z,5.8
2018-03-26T18:45:02.286Z,5.8
2018-03-26T19:00:02.502Z,5.8
2018-03-26T19:15:02.782Z,5.8
2018-03-26T19:30:03.088Z,5.8
2018-03-26T19:45:02.423Z,5.8
2018-03-26T20:00:02.687Z,5.8
2018-03-26T20:15:02.894Z,5.8
2018-03-26T20:30:02.207Z,5.8
2018-03-26T20:45:02.435Z,5.8
2018-03-26T21:00:02.717Z,5.8
2018-03-26T21:15:03.164Z,5.8
2018-03-26T21:30:02.635Z,5.8
2018-03-26T21:45:03.268Z,5.8
2018-03-26T22:00:03.142Z,5.8
2018-03-26T22:15:02.552Z,5.8
2018-03-26T22:30:02.934Z,5.7
2018-03-26T22:45:03.289Z,5.7
2018-03-26T23:00:02.724Z,5.7
2018-03-26T23:15:03.131Z,5.6
2018-03-26T23:30:02.765Z,5.6
2018-03-26T23:45:03.132Z,5.6
